Luxi, China
Current Conditions -  °F | °C
As of 7:00 AM on Saturday 29 Nov 2014 (Local Time) from ZPPP Reporting Station
Clear Clear  
Wind Chill: 39°   Ceiling: Unl
Heat Index: 45°   Visibility: 6mi
Dew Point: 41°   Wind: 11mph
Humidity: 87%   Direction: 220°SW
Pressure: 30.06"   Gusts: NA
Location:  24.53°N, 103.77°E
Report Text: ZPPP 282300Z 22005MPS CAVOK 07/05 Q1018 NOSIG
Loading
Personal Weather Stations






























Interactive Weather Map New forecast layout! Learn more

10-Day Weather Forecast

Advertisements
Track Severe Weather on mobile